Time;durP1;ratioP1;P1;durP2;ratioP2;P2;SDS_P1;SDS_P2;PMS_P1;PMS_P2;Temp;Humidity;BMP_temperature;BMP_pressure;BME280_temperature;BME280_humidity;BME280_pressure;Samples;Min_cycle;Max_cycle;Signal;HPM_P1;HPM_P2
2023/06/07 00:00:24;;;;;;;;;;;10.70;55.80;;;;;;4065160;29;19964;-87
2023/06/07 00:02:44;;;;;;;;;;;10.60;55.90;;;;;;4064322;29;20014;-87
2023/06/07 00:05:05;;;;;;;;;;;10.70;56.40;;;;;;4055369;29;19943;-86
2023/06/07 00:07:26;;;;;;;;;;;10.60;56.50;;;;;;4058911;29;19919;-87
2023/06/07 00:09:47;;;;;;;;;;;10.60;56.80;;;;;;4053851;29;19983;-87
2023/06/07 00:12:08;;;;;;;;;;;10.50;56.60;;;;;;4062336;29;20632;-89
2023/06/07 00:14:29;;;;;;;;;;;10.50;56.70;;;;;;4050248;29;19958;-86
2023/06/07 00:16:52;;;;;;;;;;;10.50;56.80;;;;;;4050593;29;20423;-88
2023/06/07 00:19:13;;;;;;;;;;;10.40;56.80;;;;;;4061872;29;19950;-85
2023/06/07 00:21:33;;;;;;;;;;;10.50;56.90;;;;;;4046964;29;19926;-85
2023/06/07 00:23:54;;;;;;;;;;;10.40;56.80;;;;;;4063619;29;19915;-85
2023/06/07 00:26:15;;;;;;;;;;;10.30;56.70;;;;;;4064332;29;19915;-86
2023/06/07 00:28:36;;;;;;;;;;;10.30;56.70;;;;;;4066906;29;19919;-86
2023/06/07 00:30:57;;;;;;;;;;;10.30;56.70;;;;;;4061420;29;19919;-84
2023/06/07 00:33:19;;;;;;;;;;;10.20;56.80;;;;;;4050326;29;19987;-87
2023/06/07 00:35:40;;;;;;;;;;;10.20;57.10;;;;;;4053809;29;19915;-86
2023/06/07 00:38:03;;;;;;;;;;;10.20;57.10;;;;;;4076136;29;19919;-86
2023/06/07 00:40:24;;;;;;;;;;;10.10;57.20;;;;;;4064685;29;19923;-86
2023/06/07 00:42:45;;;;;;;;;;;10.10;57.40;;;;;;4060771;29;19926;-85
2023/06/07 00:45:06;;;;;;;;;;;10.00;57.40;;;;;;4061958;29;19920;-87
2023/06/07 00:47:27;;;;;;;;;;;10.00;57.40;;;;;;4063169;29;19916;-86
2023/06/07 00:49:48;;;;;;;;;;;10.00;57.40;;;;;;4056883;29;19976;-85
2023/06/07 00:52:09;;;;;;;;;;;10.00;57.90;;;;;;4049831;29;20007;-86
2023/06/07 00:54:30;;;;;;;;;;;9.90;57.50;;;;;;4063078;29;19968;-87
2023/06/07 00:56:51;;;;;;;;;;;9.90;56.70;;;;;;4061638;29;20368;-86
2023/06/07 00:59:11;;;;;;;;;;;9.90;56.60;;;;;;4048986;29;19924;-84
2023/06/07 01:01:33;;;;;;;;;;;10.00;57.20;;;;;;4059121;29;20421;-85
2023/06/07 01:03:54;;;;;;;;;;;9.90;57.50;;;;;;4051484;29;19997;-85
2023/06/07 01:06:15;;;;;;;;;;;10.00;57.90;;;;;;4060911;29;19939;-87
2023/06/07 01:08:37;;;;;;;;;;;10.00;57.70;;;;;;4051117;29;19916;-87
2023/06/07 01:10:59;;;;;;;;;;;10.10;57.80;;;;;;4049306;29;20337;-85
2023/06/07 01:13:21;;;;;;;;;;;10.10;57.60;;;;;;4063380;29;19938;-86
2023/06/07 01:15:42;;;;;;;;;;;10.10;58.00;;;;;;4063455;29;19919;-85
2023/06/07 01:18:04;;;;;;;;;;;10.10;58.30;;;;;;4058074;29;19927;-85
2023/06/07 01:20:26;;;;;;;;;;;10.10;58.90;;;;;;4062796;29;19954;-85
2023/06/07 01:22:48;;;;;;;;;;;10.20;58.90;;;;;;4049621;29;19916;-84
2023/06/07 01:25:09;;;;;;;;;;;10.20;59.30;;;;;;4052046;29;19927;-85
2023/06/07 01:27:30;;;;;;;;;;;10.20;59.50;;;;;;4064959;29;19977;-86
2023/06/07 01:29:51;;;;;;;;;;;10.30;59.60;;;;;;4060422;29;19927;-85
2023/06/07 01:32:12;;;;;;;;;;;10.30;59.90;;;;;;4051653;29;19915;-85
2023/06/07 01:34:34;;;;;;;;;;;10.30;59.80;;;;;;4050911;29;19924;-87
2023/06/07 01:36:55;;;;;;;;;;;10.30;59.90;;;;;;4048838;29;19926;-87
2023/06/07 01:39:17;;;;;;;;;;;10.40;60.40;;;;;;4048665;29;19919;-84
2023/06/07 01:41:38;;;;;;;;;;;10.30;60.30;;;;;;4058962;29;19974;-85
2023/06/07 01:44:00;;;;;;;;;;;10.40;61.00;;;;;;4073920;29;20027;-87
2023/06/07 01:46:20;;;;;;;;;;;10.50;62.30;;;;;;4079889;29;19915;-87
2023/06/07 01:48:41;;;;;;;;;;;10.40;62.00;;;;;;4057566;29;20391;-87
2023/06/07 01:51:02;;;;;;;;;;;10.50;63.30;;;;;;4061530;29;20364;-86
2023/06/07 01:53:23;;;;;;;;;;;10.50;62.40;;;;;;4057173;29;19930;-86
2023/06/07 01:55:44;;;;;;;;;;;10.50;62.30;;;;;;4057305;29;19920;-89
2023/06/07 01:58:11;;;;;;;;;;;10.50;62.10;;;;;;4057062;29;19974;-86
2023/06/07 02:00:40;;;;;;;;;;;10.50;62.40;;;;;;4056840;29;19923;-89
2023/06/07 02:03:04;;;;;;;;;;;10.50;62.80;;;;;;4060165;29;19922;-85
2023/06/07 02:05:36;;;;;;;;;;;10.50;62.90;;;;;;4057571;29;19919;-86
2023/06/07 02:07:58;;;;;;;;;;;10.50;62.60;;;;;;4059089;29;19975;-87
2023/06/07 02:10:20;;;;;;;;;;;10.60;63.60;;;;;;4069779;29;19919;-86
2023/06/07 02:12:42;;;;;;;;;;;10.70;62.90;;;;;;4059442;29;19983;-85
2023/06/07 02:15:03;;;;;;;;;;;10.60;63.30;;;;;;4058053;29;20362;-85
2023/06/07 02:17:24;;;;;;;;;;;10.60;63.80;;;;;;4047979;29;19930;-86
2023/06/07 02:19:45;;;;;;;;;;;10.60;63.10;;;;;;4069631;29;19915;-87
2023/06/07 02:22:06;;;;;;;;;;;10.60;63.20;;;;;;4060288;29;19915;-88
2023/06/07 02:24:27;;;;;;;;;;;10.70;63.20;;;;;;4044074;29;20002;-85
2023/06/07 02:26:48;;;;;;;;;;;10.70;63.00;;;;;;4061165;29;19966;-86
2023/06/07 02:29:09;;;;;;;;;;;10.80;64.70;;;;;;4057769;29;19915;-86
2023/06/07 02:31:29;;;;;;;;;;;10.70;64.00;;;;;;4057750;29;20335;-86
2023/06/07 02:33:50;;;;;;;;;;;10.70;63.80;;;;;;4059213;29;19915;-87
2023/06/07 02:36:12;;;;;;;;;;;10.70;63.80;;;;;;4055512;29;19974;-86
2023/06/07 02:38:33;;;;;;;;;;;10.80;63.70;;;;;;4058319;29;19974;-86
2023/06/07 02:40:55;;;;;;;;;;;10.80;63.70;;;;;;4057211;29;19919;-87
2023/06/07 02:43:16;;;;;;;;;;;10.80;64.70;;;;;;4068988;29;19919;-86
2023/06/07 02:45:37;;;;;;;;;;;10.80;64.10;;;;;;4059818;29;19919;-88
2023/06/07 02:47:57;;;;;;;;;;;10.80;64.00;;;;;;4053557;29;19916;-84
2023/06/07 02:50:18;;;;;;;;;;;10.80;64.40;;;;;;4054701;29;19923;-86
2023/06/07 02:52:41;;;;;;;;;;;10.90;64.30;;;;;;4059062;29;19975;-86
2023/06/07 02:55:02;;;;;;;;;;;10.80;64.40;;;;;;4072695;29;19918;-88
2023/06/07 02:57:23;;;;;;;;;;;10.90;65.00;;;;;;4061053;29;19958;-85
2023/06/07 02:59:44;;;;;;;;;;;11.00;65.00;;;;;;4057040;29;20006;-85
2023/06/07 03:02:05;;;;;;;;;;;10.90;66.20;;;;;;4061762;29;19919;-85
2023/06/07 03:04:28;;;;;;;;;;;10.90;65.00;;;;;;4057067;29;19923;-85
2023/06/07 03:06:52;;;;;;;;;;;11.00;65.30;;;;;;4065586;29;19911;-88
2023/06/07 03:09:14;;;;;;;;;;;11.00;65.40;;;;;;4075757;29;19966;-86
2023/06/07 03:11:34;;;;;;;;;;;10.90;65.20;;;;;;4059055;29;19933;-86
2023/06/07 03:13:55;;;;;;;;;;;11.00;65.20;;;;;;4058772;29;20392;-85
2023/06/07 03:16:19;;;;;;;;;;;11.00;65.60;;;;;;4059052;29;19924;-85
2023/06/07 03:18:39;;;;;;;;;;;11.00;65.30;;;;;;4060763;29;19927;-85
2023/06/07 03:21:00;;;;;;;;;;;10.90;65.40;;;;;;4054656;29;20479;-85
2023/06/07 03:23:21;;;;;;;;;;;11.00;65.80;;;;;;4061605;29;19923;-85
2023/06/07 03:25:42;;;;;;;;;;;11.00;65.30;;;;;;4058444;29;20532;-85
2023/06/07 03:28:03;;;;;;;;;;;10.90;65.20;;;;;;4073517;29;19982;-86
2023/06/07 03:30:24;;;;;;;;;;;10.90;65.20;;;;;;4061561;29;19919;-85
2023/06/07 03:32:45;;;;;;;;;;;11.00;65.50;;;;;;4061083;29;19927;-85
2023/06/07 03:35:07;;;;;;;;;;;11.00;65.30;;;;;;4071887;29;19919;-85
2023/06/07 03:37:28;;;;;;;;;;;11.00;65.70;;;;;;4050005;29;19920;-85
2023/06/07 03:39:48;;;;;;;;;;;10.90;65.60;;;;;;4061948;29;19996;-86
2023/06/07 03:42:09;;;;;;;;;;;11.00;65.50;;;;;;4061707;29;19915;-86
2023/06/07 03:44:30;;;;;;;;;;;11.00;65.70;;;;;;4053906;29;19930;-86
2023/06/07 03:46:51;;;;;;;;;;;10.90;67.20;;;;;;4065085;29;19915;-85
2023/06/07 03:49:12;;;;;;;;;;;11.00;66.10;;;;;;4062255;29;20380;-87
2023/06/07 03:51:33;;;;;;;;;;;11.00;66.00;;;;;;4051725;29;19935;-86
2023/06/07 03:53:53;;;;;;;;;;;11.00;66.20;;;;;;4066226;29;19930;-84
2023/06/07 03:56:15;;;;;;;;;;;11.00;65.90;;;;;;4061588;29;19998;-85
2023/06/07 03:58:36;;;;;;;;;;;11.00;66.10;;;;;;4058368;29;19986;-85
2023/06/07 04:00:56;;;;;;;;;;;11.00;66.10;;;;;;4052215;29;19920;-87
2023/06/07 04:03:24;;;;;;;;;;;11.10;66.50;;;;;;4059621;29;19985;-87
2023/06/07 04:05:45;;;;;;;;;;;11.00;66.60;;;;;;4054386;29;19915;-85
2023/06/07 04:08:06;;;;;;;;;;;11.00;66.70;;;;;;4063556;29;19974;-85
2023/06/07 04:10:27;;;;;;;;;;;11.10;66.40;;;;;;4045991;29;19958;-84
2023/06/07 04:12:47;;;;;;;;;;;11.10;66.50;;;;;;4059857;29;19970;-88
2023/06/07 04:15:09;;;;;;;;;;;11.10;66.30;;;;;;4072548;29;20121;-85
2023/06/07 04:17:30;;;;;;;;;;;11.00;66.30;;;;;;4054793;29;19927;-85
2023/06/07 04:19:54;;;;;;;;;;;11.10;66.30;;;;;;4058693;29;19923;-86
2023/06/07 04:22:16;;;;;;;;;;;11.10;66.30;;;;;;4049887;29;20002;-84
2023/06/07 04:24:36;;;;;;;;;;;11.10;66.40;;;;;;4050108;29;20041;-85
2023/06/07 04:26:58;;;;;;;;;;;11.10;66.60;;;;;;4062355;29;19931;-85
2023/06/07 04:29:21;;;;;;;;;;;11.20;66.60;;;;;;4051778;29;19919;-86
2023/06/07 04:31:42;;;;;;;;;;;11.20;66.40;;;;;;4067410;29;20018;-84
2023/06/07 04:34:04;;;;;;;;;;;11.20;66.40;;;;;;4057635;29;19919;-85
2023/06/07 04:36:28;;;;;;;;;;;11.30;66.40;;;;;;4054743;29;19919;-85
2023/06/07 04:38:49;;;;;;;;;;;11.30;66.20;;;;;;4077280;29;19930;-85
2023/06/07 04:41:12;;;;;;;;;;;11.20;66.00;;;;;;4064840;29;19919;-87
2023/06/07 04:43:36;;;;;;;;;;;11.20;66.20;;;;;;4055313;29;19990;-87
2023/06/07 04:46:01;;;;;;;;;;;11.20;66.40;;;;;;4076354;29;19915;-86
2023/06/07 04:48:22;;;;;;;;;;;11.30;67.40;;;;;;4063282;29;19978;-88
2023/06/07 04:50:43;;;;;;;;;;;11.30;66.70;;;;;;4059370;29;19924;-84
2023/06/07 04:53:04;;;;;;;;;;;11.30;66.90;;;;;;4048755;29;20023;-87
2023/06/07 04:55:28;;;;;;;;;;;11.30;66.70;;;;;;4062055;29;19919;-85
2023/06/07 04:57:54;;;;;;;;;;;11.40;67.10;;;;;;4063239;29;19919;-86
2023/06/07 05:00:16;;;;;;;;;;;11.40;67.00;;;;;;4060910;29;19933;-84
2023/06/07 05:02:41;;;;;;;;;;;11.40;66.50;;;;;;4050937;29;19920;-85
2023/06/07 05:05:02;;;;;;;;;;;11.50;66.60;;;;;;4074234;29;19915;-88
2023/06/07 05:07:22;;;;;;;;;;;11.50;67.00;;;;;;4072368;29;20018;-86
2023/06/07 05:09:43;;;;;;;;;;;11.50;67.30;;;;;;4060181;29;20347;-85
2023/06/07 05:12:04;;;;;;;;;;;11.60;67.20;;;;;;4060594;29;19970;-86
2023/06/07 05:14:25;;;;;;;;;;;11.50;66.70;;;;;;4059875;29;20359;-87
2023/06/07 05:16:46;;;;;;;;;;;11.50;66.50;;;;;;4073212;29;19943;-86
2023/06/07 05:19:07;;;;;;;;;;;11.60;66.90;;;;;;4060551;29;19920;-85
2023/06/07 05:21:28;;;;;;;;;;;11.60;66.80;;;;;;4060317;29;20359;-87
2023/06/07 05:23:49;;;;;;;;;;;11.60;66.40;;;;;;4060929;29;19919;-85
2023/06/07 05:26:10;;;;;;;;;;;11.60;67.10;;;;;;4048536;29;19919;-86
2023/06/07 05:28:31;;;;;;;;;;;11.60;66.80;;;;;;4059666;29;20380;-85
2023/06/07 05:30:52;;;;;;;;;;;11.60;66.90;;;;;;4060383;29;19920;-86
2023/06/07 05:33:12;;;;;;;;;;;11.60;66.60;;;;;;4060367;29;20167;-86
2023/06/07 05:35:33;;;;;;;;;;;11.60;67.20;;;;;;4048199;29;19952;-85
2023/06/07 05:37:54;;;;;;;;;;;11.70;66.50;;;;;;4054375;29;20018;-87
2023/06/07 05:40:18;;;;;;;;;;;11.70;66.60;;;;;;4056348;29;19923;-86
2023/06/07 05:42:38;;;;;;;;;;;11.70;66.40;;;;;;4066937;29;19914;-85
2023/06/07 05:44:59;;;;;;;;;;;11.80;66.70;;;;;;4060734;29;19915;-87
2023/06/07 05:47:20;;;;;;;;;;;11.80;66.80;;;;;;4061372;29;19926;-86
2023/06/07 05:49:42;;;;;;;;;;;11.80;66.70;;;;;;4062351;29;19919;-86
2023/06/07 05:52:03;;;;;;;;;;;11.80;66.50;;;;;;4048061;29;19930;-86
2023/06/07 05:54:25;;;;;;;;;;;11.90;66.50;;;;;;4052357;29;20023;-84
2023/06/07 05:56:46;;;;;;;;;;;11.90;66.30;;;;;;4063578;29;19994;-84
2023/06/07 05:59:07;;;;;;;;;;;11.90;66.80;;;;;;4060246;29;20564;-85
2023/06/07 06:01:29;;;;;;;;;;;11.90;66.70;;;;;;4062198;29;19937;-85
2023/06/07 06:03:50;;;;;;;;;;;11.90;66.70;;;;;;4058818;29;19931;-86
2023/06/07 06:06:11;;;;;;;;;;;12.00;66.70;;;;;;4074913;29;20330;-84
2023/06/07 06:08:34;;;;;;;;;;;12.00;66.70;;;;;;4073054;29;20192;-85
2023/06/07 06:10:54;;;;;;;;;;;11.90;66.90;;;;;;4060586;29;20311;-85
2023/06/07 06:13:15;;;;;;;;;;;12.00;67.50;;;;;;4056368;29;19923;-83
2023/06/07 06:15:37;;;;;;;;;;;11.90;66.80;;;;;;4058850;29;20023;-87
2023/06/07 06:17:57;;;;;;;;;;;12.00;67.10;;;;;;4061147;29;19934;-84
2023/06/07 06:20:18;;;;;;;;;;;12.00;67.00;;;;;;4072080;29;19925;-85
2023/06/07 06:22:39;;;;;;;;;;;12.00;67.30;;;;;;4062786;29;19998;-86
2023/06/07 06:25:00;;;;;;;;;;;12.10;67.20;;;;;;4057908;29;20375;-85
2023/06/07 06:27:21;;;;;;;;;;;12.20;67.20;;;;;;4059367;29;19954;-85
2023/06/07 06:29:42;;;;;;;;;;;12.10;67.10;;;;;;4057831;29;20815;-85
2023/06/07 06:32:03;;;;;;;;;;;12.10;67.10;;;;;;4058820;29;19919;-85
2023/06/07 06:34:24;;;;;;;;;;;12.20;67.20;;;;;;4045733;29;19951;-85
2023/06/07 06:36:45;;;;;;;;;;;12.20;67.20;;;;;;4057365;29;19966;-85
2023/06/07 06:39:07;;;;;;;;;;;12.20;67.10;;;;;;4050135;29;19959;-86
2023/06/07 06:41:28;;;;;;;;;;;12.20;67.10;;;;;;4067016;29;19923;-85
2023/06/07 06:43:49;;;;;;;;;;;12.30;67.30;;;;;;4046481;29;19916;-86
2023/06/07 06:46:10;;;;;;;;;;;12.40;67.30;;;;;;4041574;29;19955;-87
2023/06/07 06:48:31;;;;;;;;;;;12.30;67.30;;;;;;4057846;29;19922;-86
2023/06/07 06:50:51;;;;;;;;;;;12.30;67.10;;;;;;4056742;29;19951;-85
2023/06/07 06:53:12;;;;;;;;;;;12.50;67.20;;;;;;4056350;29;19920;-86
2023/06/07 06:55:33;;;;;;;;;;;12.40;67.10;;;;;;4043795;29;19967;-86
2023/06/07 06:57:55;;;;;;;;;;;12.50;67.30;;;;;;4045913;29;20373;-86
2023/06/07 07:00:16;;;;;;;;;;;12.50;67.40;;;;;;4046648;29;19916;-85
2023/06/07 07:02:37;;;;;;;;;;;12.60;67.50;;;;;;4049078;29;19923;-85
2023/06/07 07:04:58;;;;;;;;;;;12.60;67.50;;;;;;4052148;29;19974;-85
2023/06/07 07:07:19;;;;;;;;;;;12.80;67.30;;;;;;4048848;29;19923;-87
2023/06/07 07:09:40;;;;;;;;;;;12.70;67.00;;;;;;4056870;29;19976;-86
2023/06/07 07:12:01;;;;;;;;;;;12.80;67.00;;;;;;4056145;29;20672;-86
2023/06/07 07:14:21;;;;;;;;;;;12.80;66.90;;;;;;4058500;29;20110;-88
2023/06/07 07:16:42;;;;;;;;;;;12.90;66.70;;;;;;4057719;29;19930;-85
2023/06/07 07:19:03;;;;;;;;;;;13.00;66.70;;;;;;4046475;29;19930;-85
2023/06/07 07:21:26;;;;;;;;;;;13.00;66.90;;;;;;4074077;28;19986;-87
2023/06/07 07:23:46;;;;;;;;;;;13.10;67.00;;;;;;4048088;29;19959;-85
2023/06/07 07:26:07;;;;;;;;;;;13.20;66.90;;;;;;4057126;29;19923;-84
2023/06/07 07:28:28;;;;;;;;;;;13.20;66.70;;;;;;4056135;29;20268;-84
2023/06/07 07:30:49;;;;;;;;;;;13.30;66.70;;;;;;4055583;29;19943;-85
2023/06/07 07:33:10;;;;;;;;;;;13.30;66.90;;;;;;4055977;29;19916;-86
2023/06/07 07:35:30;;;;;;;;;;;13.40;67.00;;;;;;4056183;29;20520;-86
2023/06/07 07:37:53;;;;;;;;;;;13.40;67.10;;;;;;4061082;29;20770;-84
2023/06/07 07:40:27;;;;;;;;;;;13.40;66.90;;;;;;4223027;27;19924;-85
2023/06/07 07:42:48;;;;;;;;;;;13.50;66.70;;;;;;4208790;28;20477;-85
2023/06/07 07:45:09;;;;;;;;;;;13.70;66.60;;;;;;4204050;28;20330;-86
2023/06/07 07:47:30;;;;;;;;;;;13.70;66.40;;;;;;4208023;28;19951;-84
2023/06/07 07:49:55;;;;;;;;;;;13.70;66.20;;;;;;4207101;28;20392;-85
2023/06/07 07:52:16;;;;;;;;;;;13.80;66.00;;;;;;4209722;28;19920;-85
2023/06/07 07:54:36;;;;;;;;;;;13.90;65.90;;;;;;4202344;28;19920;-85
2023/06/07 07:56:57;;;;;;;;;;;13.90;65.60;;;;;;4203308;28;20054;-86
2023/06/07 07:59:18;;;;;;;;;;;14.00;65.50;;;;;;4212968;28;20317;-85
2023/06/07 08:01:39;;;;;;;;;;;14.10;65.30;;;;;;4203939;28;20302;-85
2023/06/07 08:04:00;;;;;;;;;;;14.10;65.50;;;;;;4201599;28;20574;-86
2023/06/07 08:06:24;;;;;;;;;;;14.10;65.10;;;;;;4198065;28;19912;-86
2023/06/07 08:08:46;;;;;;;;;;;14.20;64.80;;;;;;4205985;27;19959;-86
2023/06/07 08:11:07;;;;;;;;;;;14.20;64.70;;;;;;4217032;27;19916;-86
2023/06/07 08:13:28;;;;;;;;;;;14.30;64.90;;;;;;4229303;27;19915;-86
2023/06/07 08:15:49;;;;;;;;;;;14.40;64.60;;;;;;4226882;27;19916;-89
2023/06/07 08:18:10;;;;;;;;;;;14.40;64.90;;;;;;4223555;27;19916;-87
2023/06/07 08:20:31;;;;;;;;;;;14.60;65.10;;;;;;4225683;28;19962;-86
2023/06/07 08:22:53;;;;;;;;;;;14.60;65.20;;;;;;4230073;27;19920;-84
2023/06/07 08:25:14;;;;;;;;;;;14.80;65.30;;;;;;4213394;28;20221;-86
2023/06/07 08:27:35;;;;;;;;;;;14.80;65.40;;;;;;4221146;28;19919;-86
2023/06/07 08:29:56;;;;;;;;;;;14.90;65.00;;;;;;4221853;28;20006;-86
2023/06/07 08:32:17;;;;;;;;;;;15.00;64.90;;;;;;4230010;27;19912;-86
2023/06/07 08:34:40;;;;;;;;;;;15.10;64.40;;;;;;4224540;28;20506;-87
2023/06/07 08:37:01;;;;;;;;;;;15.20;64.20;;;;;;4208032;27;19977;-85
2023/06/07 08:39:23;;;;;;;;;;;15.30;64.20;;;;;;4226736;27;20014;-86
2023/06/07 08:41:43;;;;;;;;;;;15.30;63.90;;;;;;4219376;28;20003;-85
2023/06/07 08:44:09;;;;;;;;;;;15.40;63.80;;;;;;4234750;27;19916;-86
2023/06/07 08:46:31;;;;;;;;;;;15.50;63.60;;;;;;4227489;27;20134;-85
2023/06/07 08:49:00;;;;;;;;;;;15.60;63.00;;;;;;4226974;27;19920;-86
2023/06/07 08:51:42;;;;;;;;;;;15.70;63.00;;;;;;4218023;28;19922;-85
2023/06/07 08:54:03;;;;;;;;;;;15.80;62.90;;;;;;4218234;27;19973;-86
2023/06/07 08:56:25;;;;;;;;;;;15.80;62.50;;;;;;4223119;27;19919;-86
2023/06/07 08:58:47;;;;;;;;;;;15.90;62.40;;;;;;4209551;28;20580;-86
2023/06/07 09:01:08;;;;;;;;;;;15.90;62.00;;;;;;4221676;28;20495;-86
2023/06/07 09:03:28;;;;;;;;;;;15.90;61.90;;;;;;4206376;28;20424;-84
2023/06/07 09:05:52;;;;;;;;;;;16.00;62.10;;;;;;4209589;27;20384;-86
2023/06/07 09:08:13;;;;;;;;;;;16.10;61.90;;;;;;4223446;27;19968;-85
2023/06/07 09:10:34;;;;;;;;;;;16.20;61.80;;;;;;4217497;27;19973;-85
2023/06/07 09:12:55;;;;;;;;;;;16.30;61.40;;;;;;4219349;27;20679;-84
2023/06/07 09:15:20;;;;;;;;;;;16.30;61.30;;;;;;4228322;27;20385;-84
2023/06/07 09:17:54;;;;;;;;;;;16.40;61.10;;;;;;4207943;28;20460;-87
2023/06/07 09:20:18;;;;;;;;;;;16.50;60.30;;;;;;4207383;28;20337;-86
2023/06/07 09:22:39;;;;;;;;;;;16.50;60.50;;;;;;4210576;27;19977;-85
2023/06/07 09:25:06;;;;;;;;;;;16.70;60.00;;;;;;4212328;28;19920;-86
2023/06/07 09:27:27;;;;;;;;;;;16.70;60.10;;;;;;4221716;27;20023;-86
2023/06/07 09:29:48;;;;;;;;;;;16.70;59.80;;;;;;4194643;28;19920;-85
2023/06/07 09:32:19;;;;;;;;;;;16.80;59.60;;;;;;4214545;27;20266;-85
2023/06/07 09:34:40;;;;;;;;;;;16.80;59.30;;;;;;4201282;28;19921;-86
2023/06/07 09:37:01;;;;;;;;;;;16.80;59.60;;;;;;4210822;28;19942;-86
2023/06/07 09:39:23;;;;;;;;;;;16.90;59.70;;;;;;4206173;28;19963;-86
2023/06/07 09:41:44;;;;;;;;;;;17.10;59.80;;;;;;4209603;27;20017;-87
2023/06/07 09:44:05;;;;;;;;;;;17.10;59.60;;;;;;4225650;27;19958;-87
2023/06/07 09:46:33;;;;;;;;;;;17.10;59.30;;;;;;4223879;27;20355;-88
2023/06/07 09:48:53;;;;;;;;;;;17.30;58.90;;;;;;4215728;27;19912;-85
2023/06/07 09:51:15;;;;;;;;;;;17.20;58.70;;;;;;4214875;28;20433;-85
2023/06/07 09:53:55;;;;;;;;;;;17.30;58.50;;;;;;4223352;27;19916;-87
2023/06/07 09:56:16;;;;;;;;;;;17.40;58.60;;;;;;4222697;27;20399;-86
2023/06/07 09:58:37;;;;;;;;;;;17.40;58.40;;;;;;4223496;27;19915;-87
2023/06/07 10:00:58;;;;;;;;;;;17.50;58.00;;;;;;4219065;27;20001;-85
2023/06/07 10:03:19;;;;;;;;;;;17.50;57.60;;;;;;4206179;28;19959;-87
2023/06/07 10:05:41;;;;;;;;;;;17.50;57.80;;;;;;4210956;28;19916;-85
2023/06/07 10:08:02;;;;;;;;;;;17.60;57.90;;;;;;4194768;28;20027;-86
2023/06/07 10:10:24;;;;;;;;;;;17.60;57.40;;;;;;4205488;28;19920;-85
2023/06/07 10:12:46;;;;;;;;;;;17.70;57.30;;;;;;4203419;27;19920;-85
2023/06/07 10:15:08;;;;;;;;;;;17.70;57.50;;;;;;4211847;28;19916;-85
2023/06/07 10:17:33;;;;;;;;;;;17.70;57.20;;;;;;4223790;27;20003;-84
2023/06/07 10:19:59;;;;;;;;;;;17.80;57.80;;;;;;4221990;27;19919;-86
2023/06/07 10:22:23;;;;;;;;;;;17.80;57.10;;;;;;4211353;28;19923;-87
2023/06/07 10:25:01;;;;;;;;;;;17.80;57.00;;;;;;4213121;28;20297;-87
2023/06/07 10:27:22;;;;;;;;;;;17.90;56.90;;;;;;4216526;27;19916;-87
2023/06/07 10:29:53;;;;;;;;;;;17.90;56.10;;;;;;4216160;28;19970;-85
2023/06/07 10:32:15;;;;;;;;;;;17.90;56.70;;;;;;4220881;27;19960;-86
2023/06/07 10:34:37;;;;;;;;;;;18.00;57.30;;;;;;4202166;28;19974;-87
2023/06/07 10:36:58;;;;;;;;;;;18.00;57.00;;;;;;4210986;28;19923;-87
2023/06/07 10:39:19;;;;;;;;;;;18.00;57.20;;;;;;4219158;27;19927;-85
2023/06/07 10:41:40;;;;;;;;;;;18.10;57.20;;;;;;4210294;28;19927;-85
2023/06/07 10:44:02;;;;;;;;;;;18.10;57.10;;;;;;4207664;28;19931;-85
2023/06/07 10:46:23;;;;;;;;;;;18.20;56.90;;;;;;4207306;28;19912;-85
2023/06/07 10:48:45;;;;;;;;;;;18.30;56.60;;;;;;4216792;28;20354;-86
2023/06/07 10:51:06;;;;;;;;;;;18.40;56.60;;;;;;4205356;28;19923;-85
2023/06/07 10:53:48;;;;;;;;;;;18.50;57.20;;;;;;4215221;27;19920;-88
2023/06/07 10:56:27;;;;;;;;;;;18.50;57.10;;;;;;4215311;28;19916;-85
2023/06/07 10:58:48;;;;;;;;;;;18.60;55.90;;;;;;4219011;28;20474;-85
2023/06/07 11:01:25;;;;;;;;;;;18.70;55.70;;;;;;4218288;28;19916;-86
2023/06/07 11:03:46;;;;;;;;;;;18.70;55.40;;;;;;4217233;28;19955;-88
2023/06/07 11:06:09;;;;;;;;;;;18.80;55.50;;;;;;4216887;27;19916;-86
2023/06/07 11:08:36;;;;;;;;;;;18.80;55.60;;;;;;4207869;28;19983;-87
2023/06/07 11:11:00;;;;;;;;;;;18.90;55.80;;;;;;4214952;28;20574;-87
2023/06/07 11:13:21;;;;;;;;;;;18.90;55.40;;;;;;4211369;28;20504;-85
2023/06/07 11:15:42;;;;;;;;;;;19.00;54.80;;;;;;4207845;28;19918;-86
2023/06/07 11:18:08;;;;;;;;;;;19.00;55.10;;;;;;4217743;28;19915;-87
2023/06/07 11:20:35;;;;;;;;;;;19.00;54.90;;;;;;4214509;28;19927;-87
2023/06/07 11:23:15;;;;;;;;;;;19.10;54.70;;;;;;4216911;28;19942;-88
2023/06/07 11:25:36;;;;;;;;;;;19.10;54.60;;;;;;4224559;28;19911;-87
2023/06/07 11:28:03;;;;;;;;;;;19.20;54.50;;;;;;4200837;28;19916;-86
2023/06/07 11:30:24;;;;;;;;;;;19.20;54.00;;;;;;4210160;28;20425;-86
2023/06/07 11:32:45;;;;;;;;;;;19.20;54.30;;;;;;4215655;28;20424;-85
2023/06/07 11:35:06;;;;;;;;;;;19.30;54.50;;;;;;4204141;28;19927;-84
2023/06/07 11:37:40;;;;;;;;;;;19.40;54.10;;;;;;4214275;28;19976;-86
2023/06/07 11:40:01;;;;;;;;;;;19.40;54.20;;;;;;4206928;28;19919;-86
2023/06/07 11:42:23;;;;;;;;;;;19.40;52.80;;;;;;4217147;28;19911;-87
2023/06/07 11:44:51;;;;;;;;;;;19.50;53.60;;;;;;4195028;28;19920;-86
2023/06/07 11:47:11;;;;;;;;;;;19.50;52.90;;;;;;4216031;28;19960;-87
2023/06/07 11:49:50;;;;;;;;;;;19.60;52.80;;;;;;4217607;28;20296;-86
2023/06/07 11:52:14;;;;;;;;;;;19.60;52.00;;;;;;4202410;28;19947;-87
2023/06/07 11:54:39;;;;;;;;;;;19.70;53.40;;;;;;4204098;28;20665;-86
2023/06/07 11:57:00;;;;;;;;;;;19.80;53.20;;;;;;4212753;28;19972;-85
2023/06/07 11:59:22;;;;;;;;;;;19.80;53.30;;;;;;4199274;28;20156;-84
2023/06/07 12:01:44;;;;;;;;;;;19.90;53.50;;;;;;4197840;28;19959;-85
2023/06/07 12:04:09;;;;;;;;;;;20.00;53.00;;;;;;4214052;28;19928;-88
2023/06/07 12:06:30;;;;;;;;;;;20.10;52.80;;;;;;4217464;28;20581;-85
2023/06/07 12:08:51;;;;;;;;;;;20.00;52.70;;;;;;4211021;28;19945;-85
2023/06/07 12:11:13;;;;;;;;;;;20.10;51.60;;;;;;4215473;28;19923;-85
2023/06/07 12:13:35;;;;;;;;;;;20.10;52.10;;;;;;4216927;28;19990;-85
2023/06/07 12:15:57;;;;;;;;;;;20.10;51.80;;;;;;4191579;28;20452;-87
2023/06/07 12:18:19;;;;;;;;;;;20.10;51.70;;;;;;4218437;28;19998;-88
2023/06/07 12:20:41;;;;;;;;;;;20.20;51.70;;;;;;4218492;28;19969;-85
2023/06/07 12:23:05;;;;;;;;;;;20.10;51.40;;;;;;4213400;28;20399;-88
2023/06/07 12:25:26;;;;;;;;;;;20.10;51.60;;;;;;4206987;28;19923;-87
2023/06/07 12:27:47;;;;;;;;;;;20.20;51.80;;;;;;4209446;28;19916;-85
2023/06/07 12:30:08;;;;;;;;;;;20.20;51.60;;;;;;4209176;28;20073;-86
2023/06/07 12:32:30;;;;;;;;;;;20.20;51.10;;;;;;4223382;28;20384;-87
2023/06/07 12:34:53;;;;;;;;;;;20.20;51.60;;;;;;4204600;28;20399;-87
2023/06/07 12:37:16;;;;;;;;;;;20.30;51.20;;;;;;4199624;28;19960;-85
2023/06/07 12:39:36;;;;;;;;;;;20.30;51.20;;;;;;4203470;27;20011;-87
2023/06/07 12:41:57;;;;;;;;;;;20.30;51.00;;;;;;4220159;27;20448;-87
2023/06/07 12:44:19;;;;;;;;;;;20.30;51.50;;;;;;4205751;28;19920;-86
2023/06/07 12:46:40;;;;;;;;;;;20.40;50.50;;;;;;4205022;28;19963;-86
2023/06/07 12:49:01;;;;;;;;;;;20.50;50.90;;;;;;4207688;28;19916;-86
2023/06/07 13:00:41;;;;;;;;;;;20.60;50.30;;;;;;4188250;28;19925;-84
2023/06/07 13:09:07;;;;;;;;;;;20.90;50.60;;;;;;4134647;28;19922;-85
2023/06/07 13:11:41;;;;;;;;;;;20.90;50.60;;;;;;4155012;28;19999;-86
2023/06/07 13:17:27;;;;;;;;;;;20.90;50.10;;;;;;4117544;28;20605;-87
2023/06/07 13:19:49;;;;;;;;;;;21.00;49.70;;;;;;4169061;28;19929;-87
2023/06/07 13:22:10;;;;;;;;;;;21.00;49.30;;;;;;4154125;28;19928;-87
2023/06/07 13:24:31;;;;;;;;;;;21.00;49.40;;;;;;4153844;28;19921;-86
2023/06/07 13:26:52;;;;;;;;;;;21.00;49.80;;;;;;4167469;28;19983;-86
2023/06/07 13:29:13;;;;;;;;;;;21.00;49.90;;;;;;4159007;28;20653;-84
2023/06/07 13:31:34;;;;;;;;;;;21.00;49.80;;;;;;4167988;28;19994;-85
2023/06/07 13:33:55;;;;;;;;;;;21.10;49.90;;;;;;4151819;28;19917;-85
2023/06/07 13:36:16;;;;;;;;;;;21.00;49.70;;;;;;4152957;28;20335;-86
2023/06/07 13:38:37;;;;;;;;;;;21.10;49.60;;;;;;4166963;28;20466;-86
2023/06/07 13:40:59;;;;;;;;;;;21.10;49.30;;;;;;4169205;28;19935;-88
2023/06/07 13:43:20;;;;;;;;;;;21.10;49.40;;;;;;4166939;28;20769;-86
2023/06/07 13:45:41;;;;;;;;;;;21.20;49.60;;;;;;4167072;28;19932;-88
2023/06/07 13:48:02;;;;;;;;;;;21.20;48.00;;;;;;4153044;28;19943;-86
2023/06/07 13:50:23;;;;;;;;;;;21.20;48.60;;;;;;4167218;28;20396;-87
2023/06/07 13:52:44;;;;;;;;;;;21.20;48.60;;;;;;4153876;28;19913;-88
2023/06/07 13:55:05;;;;;;;;;;;21.20;48.50;;;;;;4168676;28;20342;-85
2023/06/07 13:57:26;;;;;;;;;;;21.20;48.70;;;;;;4164405;28;19999;-85
2023/06/07 13:59:47;;;;;;;;;;;21.20;48.50;;;;;;4168515;28;19974;-88
2023/06/07 14:02:10;;;;;;;;;;;21.20;48.10;;;;;;4164365;28;20373;-87
2023/06/07 14:04:31;;;;;;;;;;;21.20;48.00;;;;;;4168460;28;19917;-85